Time;durP1;ratioP1;P1;durP2;ratioP2;P2;SDS_P1;SDS_P2;PMS_P1;PMS_P2;Temp;Humidity;BMP_temperature;BMP_pressure;BME280_temperature;BME280_humidity;BME280_pressure;Samples;Min_cycle;Max_cycle;Signal;HPM_P1;HPM_P2
2021/12/02 00:03:12;;;;;;;5.40;4.20;;;;;;;4.85;85.59;96831.28;418105;1316;141764;-62
2021/12/02 00:13:23;;;;;;;3.50;3.00;;;;;;;4.85;85.27;96835.59;419851;1316;141257;-62
2021/12/02 00:23:36;;;;;;;5.40;3.50;;;;;;;4.86;85.33;96835.55;419672;1314;141078;-59
2021/12/02 00:33:45;;;;;;;4.00;3.60;;;;;;;4.80;84.96;96828.20;418921;1312;141748;-59
2021/12/02 00:43:53;;;;;;;4.70;3.60;;;;;;;4.70;84.82;96832.55;419325;1313;140769;-60
2021/12/02 00:54:03;;;;;;;6.90;4.20;;;;;;;4.73;85.15;96834.86;419051;1309;140802;-60
2021/12/02 01:04:10;;;;;;;4.10;3.10;;;;;;;4.77;84.83;96823.63;418948;1312;142159;-59
2021/12/02 01:14:17;;;;;;;5.90;3.70;;;;;;;4.82;84.68;96833.10;418358;1313;142570;-59
2021/12/02 01:24:24;;;;;;;4.70;2.80;;;;;;;4.67;84.67;96828.44;418612;1313;140697;-59
2021/12/02 01:34:31;;;;;;;3.70;2.70;;;;;;;4.50;84.63;96821.71;433139;1314;141229;-59
2021/12/02 01:44:42;;;;;;;4.20;3.50;;;;;;;4.41;84.57;96822.46;433267;1310;141462;-59
2021/12/02 01:54:48;;;;;;;5.00;3.30;;;;;;;4.45;84.69;96825.23;425807;1309;141754;-60
2021/12/02 02:04:54;;;;;;;4.50;2.70;;;;;;;4.39;84.91;96830.98;433439;1312;140632;-60
2021/12/02 02:15:02;;;;;;;2.70;2.20;;;;;;;4.50;84.71;96828.14;427105;1312;141149;-60
2021/12/02 02:25:12;;;;;;;3.20;2.30;;;;;;;4.63;84.51;96817.48;433140;1312;141612;-61
2021/12/02 02:35:18;;;;;;;2.60;1.90;;;;;;;4.79;84.35;96820.66;434520;1312;141585;-60
2021/12/02 02:45:24;;;;;;;1.70;1.60;;;;;;;4.73;83.43;96818.41;433742;1310;141802;-60
2021/12/02 02:55:31;;;;;;;2.50;1.80;;;;;;;4.57;83.31;96806.05;434502;1313;141355;-60
2021/12/02 03:05:45;;;;;;;3.30;1.80;;;;;;;4.46;82.97;96804.20;425222;1310;144763;-60
2021/12/02 03:26:17;;;;;;;3.40;1.30;;;;;;;4.16;82.72;96827.80;434618;1310;181956;-60
2021/12/02 03:36:23;;;;;;;1.80;1.50;;;;;;;4.05;82.91;96839.56;425140;1312;396815;-60
2021/12/02 03:46:31;;;;;;;1.30;1.20;;;;;;;4.00;82.49;96851.55;434565;1313;141381;-61
2021/12/02 03:56:36;;;;;;;2.60;1.20;;;;;;;3.93;82.04;96868.73;432194;1313;142301;-60
2021/12/02 04:06:43;;;;;;;1.40;1.30;;;;;;;3.92;82.44;96881.96;425166;1314;140997;-60
2021/12/02 04:16:53;;;;;;;1.40;0.80;;;;;;;3.87;81.92;96890.19;417305;1313;143110;-60
2021/12/02 04:26:59;;;;;;;0.90;0.80;;;;;;;3.78;81.58;96897.05;432323;1310;142747;-60
2021/12/02 04:37:06;;;;;;;1.30;0.80;;;;;;;3.72;80.87;96905.52;434550;1312;142714;-61
2021/12/02 04:47:12;;;;;;;2.30;0.60;;;;;;;3.61;79.78;96924.23;433101;1312;141455;-60
2021/12/02 04:57:18;;;;;;;1.00;0.60;;;;;;;3.45;79.24;96941.53;432369;1312;142535;-60
2021/12/02 05:07:24;;;;;;;1.50;0.90;;;;;;;3.32;78.82;96958.05;427236;1310;142340;-60
2021/12/02 05:17:30;;;;;;;1.60;0.60;;;;;;;3.10;79.35;96969.76;418246;1312;141345;-60
2021/12/02 05:27:36;;;;;;;2.60;0.40;;;;;;;2.90;78.74;96979.67;418692;1312;142707;-61
2021/12/02 05:37:42;;;;;;;2.30;0.40;;;;;;;2.83;77.40;96986.80;433635;1312;142439;-61
2021/12/02 05:47:48;;;;;;;1.80;1.00;;;;;;;2.70;77.59;96996.89;433839;1309;142226;-61
2021/12/02 05:57:54;;;;;;;2.20;1.00;;;;;;;2.50;77.57;97015.75;431300;1313;143983;-62
2021/12/02 06:08:02;;;;;;;2.70;1.40;;;;;;;2.33;77.74;97029.59;433504;1312;143049;-59
2021/12/02 06:18:08;;;;;;;2.80;0.90;;;;;;;2.24;77.60;97042.97;433897;1313;142377;-60
2021/12/02 06:28:19;;;;;;;2.20;0.90;;;;;;;2.17;77.29;97055.06;430469;1309;145637;-60
2021/12/02 06:38:26;;;;;;;1.30;0.80;;;;;;;2.06;77.17;97057.70;429187;1315;141909;-60
2021/12/02 06:48:32;;;;;;;2.80;1.50;;;;;;;2.04;76.96;97062.63;433529;1311;141601;-60
2021/12/02 06:58:38;;;;;;;1.20;0.70;;;;;;;2.18;76.80;97073.27;434654;1310;140425;-60
2021/12/02 07:08:45;;;;;;;3.10;1.10;;;;;;;2.52;76.42;97075.03;431962;1310;142227;-59
2021/12/02 07:18:55;;;;;;;3.10;1.70;;;;;;;2.95;75.96;97090.45;433777;1312;198796;-59
2021/12/02 07:29:01;;;;;;;5.20;1.80;;;;;;;3.77;74.44;97101.86;428428;1312;142645;-60
2021/12/02 07:39:09;;;;;;;3.30;1.80;;;;;;;5.06;73.54;97105.73;431866;1313;161137;-60
2021/12/02 07:49:16;;;;;;;3.30;1.80;;;;;;;7.21;70.94;97108.56;433535;1312;141977;-62
2021/12/02 07:59:22;;;;;;;1.70;1.40;;;;;;;8.39;67.63;97129.20;430498;1315;142021;-61
2021/12/02 08:09:28;;;;;;;1.10;1.00;;;;;;;9.35;67.00;97143.83;423763;1312;142578;-60
2021/12/02 08:19:34;;;;;;;2.10;1.20;;;;;;;10.84;64.79;97149.06;434580;1313;141564;-62
2021/12/02 08:29:41;;;;;;;3.00;1.60;;;;;;;12.50;60.95;97154.96;431825;1314;140845;-63
2021/12/02 08:39:48;;;;;;;1.60;0.90;;;;;;;11.11;59.08;97172.89;433063;1312;142441;-67
2021/12/02 08:49:54;;;;;;;3.30;2.00;;;;;;;9.66;59.93;97187.40;433590;1312;140647;-64
2021/12/02 09:00:00;;;;;;;2.80;1.70;;;;;;;9.10;59.97;97200.52;431994;1313;142670;-64
2021/12/02 09:10:09;;;;;;;2.40;1.90;;;;;;;10.99;58.75;97198.21;434660;1312;142217;-63
2021/12/02 09:20:18;;;;;;;2.50;0.90;;;;;;;11.74;55.99;97209.41;429280;1315;143755;-62
2021/12/02 09:30:25;;;;;;;2.70;1.20;;;;;;;8.51;56.64;97214.31;432557;1313;142198;-67
2021/12/02 09:40:33;;;;;;;9.80;3.20;;;;;;;6.59;59.81;97214.17;434516;1313;141320;-64
2021/12/02 09:50:50;;;;;;;2.80;1.00;;;;;;;5.74;61.71;97214.77;433462;1312;142232;-65
2021/12/02 10:01:00;;;;;;;1.70;0.90;;;;;;;5.14;62.38;97221.63;434732;1315;195593;-61
2021/12/02 10:11:09;;;;;;;1.90;1.10;;;;;;;4.86;62.72;97228.48;434491;1314;140933;-64
2021/12/02 10:21:23;;;;;;;2.60;0.70;;;;;;;4.78;62.84;97232.91;420172;1313;141453;-61
2021/12/02 10:31:34;;;;;;;6.10;1.70;;;;;;;4.70;62.80;97243.77;433574;1315;141268;-67
2021/12/02 10:41:44;;;;;;;3.40;0.80;;;;;;;4.78;62.68;97256.69;425662;1315;198329;-62
2021/12/02 10:51:51;;;;;;;4.60;1.10;;;;;;;4.67;62.37;97257.35;419888;1312;10002022;-64
2021/12/02 11:02:00;;;;;;;2.60;1.20;;;;;;;4.53;62.59;97256.33;433154;1313;141443;-65
2021/12/02 11:12:19;;;;;;;6.60;2.30;;;;;;;4.65;62.49;97272.40;419360;1312;10001562;-64
2021/12/02 11:22:26;;;;;;;4.50;2.00;;;;;;;4.76;62.22;97279.36;431927;1313;140970;-61
2021/12/02 11:32:43;;;;;;;2.90;1.40;;;;;;;4.63;61.51;97283.27;431670;1312;140864;-60
2021/12/02 11:42:51;;;;;;;2.60;0.80;;;;;;;4.41;60.79;97290.98;428372;1313;298224;-66
2021/12/02 11:52:58;;;;;;;4.00;1.30;;;;;;;4.26;60.52;97308.29;421770;1313;140657;-64
2021/12/02 12:03:08;;;;;;;2.40;1.10;;;;;;;4.04;60.60;97325.09;418482;1312;140972;-62
2021/12/02 12:13:21;;;;;;;1.50;1.00;;;;;;;3.96;60.97;97334.83;418889;1312;140975;-61
2021/12/02 12:23:33;;;;;;;5.90;1.70;;;;;;;3.78;61.49;97324.54;418771;1312;141931;-64
2021/12/02 12:33:42;;;;;;;3.20;1.60;;;;;;;3.81;62.04;97335.93;419803;1313;141888;-63
2021/12/02 12:43:52;;;;;;;8.40;1.50;;;;;;;3.92;61.96;97347.40;427542;1312;141061;-61
2021/12/02 12:53:59;;;;;;;1.90;0.90;;;;;;;3.89;61.27;97354.73;425144;1312;141335;-67
2021/12/02 13:04:22;;;;;;;2.50;0.80;;;;;;;3.77;60.87;97368.73;420696;1312;140819;-64
2021/12/02 13:14:29;;;;;;;4.10;1.00;;;;;;;3.71;61.01;97372.43;421278;1313;140515;-67
2021/12/02 13:24:37;;;;;;;5.90;0.90;;;;;;;3.65;60.68;97392.93;422539;1313;142349;-61
2021/12/02 13:34:43;;;;;;;3.00;1.00;;;;;;;3.48;60.32;97411.08;429785;1312;140311;-67
2021/12/02 13:44:52;;;;;;;2.20;0.80;;;;;;;3.20;60.12;97428.58;429125;1312;141713;-67
2021/12/02 13:55:01;;;;;;;3.10;1.20;;;;;;;2.93;59.94;97436.80;422913;1312;140518;-65
2021/12/02 14:05:11;;;;;;;3.80;1.60;;;;;;;2.67;60.03;97442.44;421615;1313;140839;-67
2021/12/02 14:15:18;;;;;;;12.70;1.90;;;;;;;2.56;60.08;97453.00;422304;1312;140428;-61
2021/12/02 14:25:27;;;;;;;4.70;2.10;;;;;;;2.22;60.61;97465.39;419545;1312;141731;-64
2021/12/02 14:35:43;;;;;;;1.00;0.90;;;;;;;1.87;61.22;97472.39;422179;1312;140409;-62
2021/12/02 14:45:52;;;;;;;2.00;1.20;;;;;;;1.67;61.49;97486.25;434443;1312;140537;-62
2021/12/02 14:56:04;;;;;;;3.20;1.20;;;;;;;1.50;61.83;97496.37;430147;1310;140434;-63
2021/12/02 15:06:11;;;;;;;2.40;1.40;;;;;;;1.22;62.56;97505.61;433683;1313;140935;-60
2021/12/02 15:16:18;;;;;;;4.30;1.80;;;;;;;1.05;63.12;97523.16;413599;1313;20001402;-64
2021/12/02 15:26:25;;;;;;;11.30;2.30;;;;;;;0.83;63.66;97535.76;421618;1313;140727;-59
2021/12/02 15:36:33;;;;;;;8.50;3.30;;;;;;;0.60;64.39;97552.88;431801;1313;141291;-61
2021/12/02 15:46:42;;;;;;;9.60;4.40;;;;;;;0.45;65.58;97570.94;430943;1313;140402;-59
2021/12/02 15:56:50;;;;;;;10.40;5.80;;;;;;;0.31;66.10;97586.65;428996;1313;140777;-61
2021/12/02 16:07:04;;;;;;;12.30;6.30;;;;;;;0.17;66.57;97606.86;432267;1312;140917;-61
2021/12/02 16:17:11;;;;;;;10.80;4.50;;;;;;;0.04;67.04;97615.48;419125;1313;143420;-62
2021/12/02 16:27:19;;;;;;;7.50;3.00;;;;;;;-0.07;67.18;97623.58;426245;1306;142059;-67
2021/12/02 16:37:25;;;;;;;8.40;3.00;;;;;;;-0.13;67.21;97636.27;428399;1313;195974;-67
2021/12/02 16:47:33;;;;;;;6.60;3.70;;;;;;;-0.29;67.41;97657.20;420495;1313;140363;-65
2021/12/02 16:57:40;;;;;;;17.00;3.90;;;;;;;-0.43;67.69;97669.10;424705;1312;143384;-66
2021/12/02 17:07:48;;;;;;;11.60;3.40;;;;;;;-0.52;67.94;97678.30;426901;1312;151254;-64
2021/12/02 17:17:56;;;;;;;10.40;4.80;;;;;;;-0.51;67.80;97693.36;427728;1312;143136;-65
2021/12/02 17:28:04;;;;;;;9.30;5.20;;;;;;;-0.53;67.40;97701.90;421706;1312;141622;-66
2021/12/02 17:38:10;;;;;;;10.70;4.20;;;;;;;-0.64;68.08;97714.11;434518;1312;142988;-69
2021/12/02 17:48:19;;;;;;;8.60;5.00;;;;;;;-0.70;67.49;97727.30;421341;1310;142332;-64
2021/12/02 17:58:26;;;;;;;7.80;3.40;;;;;;;-0.72;67.72;97743.20;431963;1312;141669;-65
2021/12/02 18:08:33;;;;;;;11.30;5.20;;;;;;;-0.73;67.46;97757.15;424170;1309;145227;-67
2021/12/02 18:18:39;;;;;;;8.50;4.90;;;;;;;-0.79;67.40;97768.78;417786;1311;142724;-65
2021/12/02 18:28:49;;;;;;;11.20;5.50;;;;;;;-0.94;67.55;97785.95;425847;1313;142238;-65
2021/12/02 18:38:55;;;;;;;8.90;4.70;;;;;;;-1.12;67.93;97803.27;432271;1312;141917;-65
2021/12/02 18:49:02;;;;;;;9.30;4.00;;;;;;;-1.24;67.80;97818.58;419531;1312;10002528;-65
2021/12/02 18:59:08;;;;;;;8.00;4.10;;;;;;;-1.32;68.07;97818.22;433353;1312;142109;-65
2021/12/02 19:09:45;;;;;;;8.20;4.20;;;;;;;-1.44;68.17;97826.46;433482;1313;141763;-65
2021/12/02 19:30:17;;;;;;;11.20;5.10;;;;;;;-1.56;68.67;97844.98;421818;1313;141393;-66
2021/12/02 19:40:22;;;;;;;;;;;;;;;-1.61;68.53;97855.32;421249;1310;10001989;-65
2021/12/02 19:50:30;;;;;;;11.30;6.10;;;;;;;-1.73;68.88;97863.71;433301;1312;128192;-66
2021/12/02 20:00:39;;;;;;;14.30;5.70;;;;;;;-1.87;69.17;97874.05;433769;1310;142408;-65
2021/12/02 20:10:48;;;;;;;7.60;4.60;;;;;;;-1.93;69.22;97884.41;424359;1312;142466;-65
2021/12/02 20:20:55;;;;;;;8.80;5.20;;;;;;;-1.94;69.43;97884.80;427198;1313;142102;-62
2021/12/02 20:31:05;;;;;;;12.00;6.00;;;;;;;-1.99;69.51;97889.63;426172;1311;141374;-64
2021/12/02 20:41:12;;;;;;;11.30;5.60;;;;;;;-2.06;69.71;97897.13;434611;1312;143360;-64
2021/12/02 20:51:19;;;;;;;12.60;5.60;;;;;;;-2.15;69.97;97906.89;429888;1312;142223;-64
2021/12/02 21:01:24;;;;;;;;;;;;;;;-2.24;70.20;97919.27;434650;1313;141467;-63
2021/12/02 21:11:32;;;;;;;16.80;9.00;;;;;;;-2.39;70.37;97933.69;433518;1313;127537;-64
2021/12/02 21:21:39;;;;;;;9.30;5.80;;;;;;;-2.51;70.56;97943.73;433686;1309;141414;-67
2021/12/02 21:31:46;;;;;;;12.80;6.60;;;;;;;-2.55;70.74;97953.30;411375;1312;10139389;-59
2021/12/02 21:41:54;;;;;;;11.60;4.70;;;;;;;-2.56;70.79;97958.81;432445;1312;142117;-61
2021/12/02 21:52:00;;;;;;;11.70;5.70;;;;;;;-2.51;70.95;97967.05;431033;1313;142471;-59
2021/12/02 22:02:08;;;;;;;9.80;5.30;;;;;;;-2.53;71.02;97976.02;432419;1308;141694;-58
2021/12/02 22:12:15;;;;;;;9.40;4.90;;;;;;;-2.54;71.26;97984.96;429198;1309;142354;-64
2021/12/02 22:22:24;;;;;;;9.90;4.60;;;;;;;-2.58;71.47;97989.73;434735;1312;141736;-64
2021/12/02 22:32:30;;;;;;;8.60;4.30;;;;;;;-2.61;71.54;98004.58;425632;1312;192447;-65
2021/12/02 22:42:37;;;;;;;10.00;4.60;;;;;;;-2.43;71.76;98011.48;431015;1312;142238;-63
2021/12/02 22:52:46;;;;;;;8.80;4.80;;;;;;;-2.07;71.89;98012.36;418737;1312;140893;-64
2021/12/02 23:02:52;;;;;;;10.20;5.20;;;;;;;-1.67;71.56;98018.23;432430;1313;143501;-65
2021/12/02 23:12:58;;;;;;;8.50;5.10;;;;;;;-1.31;71.22;98012.17;434664;1309;142572;-65
2021/12/02 23:23:05;;;;;;;12.00;5.70;;;;;;;-1.03;70.96;98016.02;434636;1313;143531;-65
2021/12/02 23:33:14;;;;;;;10.20;5.20;;;;;;;-1.03;70.39;98016.17;432550;1312;141959;-66
2021/12/02 23:43:21;;;;;;;8.50;5.50;;;;;;;-1.51;70.44;98037.02;434725;1308;142227;-65
2021/12/02 23:53:28;;;;;;;8.40;4.90;;;;;;;-1.87;70.71;98051.74;427539;1313;141506;-67
